Clarkridge, Arkansas
Current Conditions -  °F | °C
As of 3:53 PM on Tuesday 21 Oct 2014 (Local Time) from KBPK Reporting Station
Clear Clear  
Wind Chill: 73°   Ceiling: Unl
Heat Index: 73°   Visibility: 10mi
Dew Point: 45°   Wind: 0mph
Humidity: 37%   Direction: NA
Pressure: 30.07"   Gusts: NA
Location:  36.48°N, 92.35°W
Report Text: KBPK 212053Z AUTO 00000KT 10SM CLR 23/07 A3007 RMK AO2 SLP177 T02280072 56016
Loading
Personal Weather Stations






























Interactive Weather Map
Tropical Storm Tracking
New forecast layout! Learn more

10-Day Weather Forecast

Advertisements
Track Severe Weather on mobile